sensor_id;sensor_type;location;lat;lon;timestamp;P1;durP1;ratioP1;P2;durP2;ratioP2
357;SDS011;167;47.558;7.602;2024-03-08T00:00:32;20.27;;;16.80;;
357;SDS011;167;47.558;7.602;2024-03-08T00:02:58;26.80;;;19.50;;
357;SDS011;167;47.558;7.602;2024-03-08T00:05:26;23.73;;;17.00;;
357;SDS011;167;47.558;7.602;2024-03-08T00:07:52;27.00;;;18.67;;
357;SDS011;167;47.558;7.602;2024-03-08T00:10:18;26.23;;;20.00;;
357;SDS011;167;47.558;7.602;2024-03-08T00:12:45;23.03;;;18.43;;
357;SDS011;167;47.558;7.602;2024-03-08T00:15:12;20.37;;;17.20;;
357;SDS011;167;47.558;7.602;2024-03-08T00:17:39;25.43;;;19.30;;
357;SDS011;167;47.558;7.602;2024-03-08T00:20:06;25.93;;;18.03;;
357;SDS011;167;47.558;7.602;2024-03-08T00:22:38;26.83;;;19.57;;
357;SDS011;167;47.558;7.602;2024-03-08T00:25:04;25.90;;;19.77;;
357;SDS011;167;47.558;7.602;2024-03-08T00:27:31;25.63;;;19.90;;
357;SDS011;167;47.558;7.602;2024-03-08T00:29:57;25.73;;;19.80;;
357;SDS011;167;47.558;7.602;2024-03-08T00:32:23;28.87;;;20.20;;
357;SDS011;167;47.558;7.602;2024-03-08T00:34:50;23.93;;;19.60;;
357;SDS011;167;47.558;7.602;2024-03-08T00:37:19;22.07;;;18.23;;
357;SDS011;167;47.558;7.602;2024-03-08T00:39:47;25.10;;;19.47;;
357;SDS011;167;47.558;7.602;2024-03-08T00:42:12;19.87;;;17.60;;
357;SDS011;167;47.558;7.602;2024-03-08T00:44:39;26.77;;;19.70;;
357;SDS011;167;47.558;7.602;2024-03-08T00:47:05;24.30;;;18.90;;
357;SDS011;167;47.558;7.602;2024-03-08T00:49:31;25.40;;;20.00;;
357;SDS011;167;47.558;7.602;2024-03-08T00:51:57;23.20;;;19.60;;
357;SDS011;167;47.558;7.602;2024-03-08T00:54:23;21.17;;;18.63;;
357;SDS011;167;47.558;7.602;2024-03-08T00:56:49;26.10;;;19.73;;
357;SDS011;167;47.558;7.602;2024-03-08T00:59:15;22.90;;;18.23;;
357;SDS011;167;47.558;7.602;2024-03-08T01:01:41;20.77;;;18.10;;
357;SDS011;167;47.558;7.602;2024-03-08T01:04:09;22.17;;;18.60;;
357;SDS011;167;47.558;7.602;2024-03-08T01:06:35;20.83;;;17.23;;
357;SDS011;167;47.558;7.602;2024-03-08T01:09:01;23.07;;;18.97;;
357;SDS011;167;47.558;7.602;2024-03-08T01:11:27;27.17;;;20.77;;
357;SDS011;167;47.558;7.602;2024-03-08T01:13:53;21.07;;;17.07;;
357;SDS011;167;47.558;7.602;2024-03-08T01:16:19;21.77;;;18.17;;
357;SDS011;167;47.558;7.602;2024-03-08T01:18:46;26.40;;;19.60;;
357;SDS011;167;47.558;7.602;2024-03-08T01:21:12;24.53;;;19.20;;
357;SDS011;167;47.558;7.602;2024-03-08T01:23:38;27.43;;;19.30;;
357;SDS011;167;47.558;7.602;2024-03-08T01:26:04;23.00;;;19.53;;
357;SDS011;167;47.558;7.602;2024-03-08T01:28:31;22.40;;;19.13;;
357;SDS011;167;47.558;7.602;2024-03-08T01:30:59;28.93;;;20.23;;
357;SDS011;167;47.558;7.602;2024-03-08T01:33:26;24.37;;;20.20;;
357;SDS011;167;47.558;7.602;2024-03-08T01:35:55;24.67;;;18.87;;
357;SDS011;167;47.558;7.602;2024-03-08T01:38:22;23.80;;;17.90;;
357;SDS011;167;47.558;7.602;2024-03-08T01:40:48;25.80;;;20.90;;
357;SDS011;167;47.558;7.602;2024-03-08T01:43:21;26.73;;;21.53;;
357;SDS011;167;47.558;7.602;2024-03-08T01:45:48;24.23;;;18.83;;
357;SDS011;167;47.558;7.602;2024-03-08T01:48:14;27.47;;;19.67;;
357;SDS011;167;47.558;7.602;2024-03-08T01:50:42;27.50;;;19.10;;
357;SDS011;167;47.558;7.602;2024-03-08T01:53:08;24.10;;;20.63;;
357;SDS011;167;47.558;7.602;2024-03-08T01:55:37;24.97;;;21.03;;
357;SDS011;167;47.558;7.602;2024-03-08T01:58:04;28.23;;;20.90;;
357;SDS011;167;47.558;7.602;2024-03-08T02:00:30;25.20;;;18.90;;
357;SDS011;167;47.558;7.602;2024-03-08T02:02:57;26.90;;;20.00;;
357;SDS011;167;47.558;7.602;2024-03-08T02:05:24;25.20;;;20.00;;
357;SDS011;167;47.558;7.602;2024-03-08T02:07:50;23.53;;;17.93;;
357;SDS011;167;47.558;7.602;2024-03-08T02:10:16;22.53;;;19.53;;
357;SDS011;167;47.558;7.602;2024-03-08T02:12:43;24.57;;;18.90;;
357;SDS011;167;47.558;7.602;2024-03-08T02:15:09;21.33;;;17.77;;
357;SDS011;167;47.558;7.602;2024-03-08T02:17:35;25.20;;;19.50;;
357;SDS011;167;47.558;7.602;2024-03-08T02:20:01;20.67;;;18.60;;
357;SDS011;167;47.558;7.602;2024-03-08T02:22:29;23.13;;;18.47;;
357;SDS011;167;47.558;7.602;2024-03-08T02:24:56;20.90;;;18.20;;
357;SDS011;167;47.558;7.602;2024-03-08T02:27:26;22.40;;;16.37;;
357;SDS011;167;47.558;7.602;2024-03-08T02:29:55;20.17;;;17.80;;
357;SDS011;167;47.558;7.602;2024-03-08T02:32:24;20.97;;;17.60;;
357;SDS011;167;47.558;7.602;2024-03-08T02:34:50;21.93;;;17.97;;
357;SDS011;167;47.558;7.602;2024-03-08T02:37:16;21.30;;;17.60;;
357;SDS011;167;47.558;7.602;2024-03-08T02:39:42;20.83;;;17.90;;
357;SDS011;167;47.558;7.602;2024-03-08T02:42:08;20.93;;;17.83;;
357;SDS011;167;47.558;7.602;2024-03-08T02:44:34;29.57;;;18.90;;
357;SDS011;167;47.558;7.602;2024-03-08T02:47:00;21.20;;;17.63;;
357;SDS011;167;47.558;7.602;2024-03-08T02:49:26;19.03;;;16.70;;
357;SDS011;167;47.558;7.602;2024-03-08T02:51:53;21.57;;;17.07;;
357;SDS011;167;47.558;7.602;2024-03-08T02:54:19;24.13;;;17.33;;
357;SDS011;167;47.558;7.602;2024-03-08T02:56:45;21.20;;;17.30;;
357;SDS011;167;47.558;7.602;2024-03-08T02:59:12;23.73;;;16.80;;
357;SDS011;167;47.558;7.602;2024-03-08T03:01:38;22.03;;;18.93;;
357;SDS011;167;47.558;7.602;2024-03-08T03:04:04;23.13;;;17.90;;
357;SDS011;167;47.558;7.602;2024-03-08T03:06:30;19.60;;;16.43;;
357;SDS011;167;47.558;7.602;2024-03-08T03:08:57;22.90;;;16.70;;
357;SDS011;167;47.558;7.602;2024-03-08T03:11:24;22.07;;;17.30;;
357;SDS011;167;47.558;7.602;2024-03-08T03:13:50;21.80;;;17.30;;
357;SDS011;167;47.558;7.602;2024-03-08T03:16:19;19.57;;;15.93;;
357;SDS011;167;47.558;7.602;2024-03-08T03:18:45;19.40;;;17.33;;
357;SDS011;167;47.558;7.602;2024-03-08T03:21:12;22.83;;;17.27;;
357;SDS011;167;47.558;7.602;2024-03-08T03:23:38;21.20;;;17.03;;
357;SDS011;167;47.558;7.602;2024-03-08T03:26:05;18.90;;;16.43;;
357;SDS011;167;47.558;7.602;2024-03-08T03:28:35;21.80;;;16.77;;
357;SDS011;167;47.558;7.602;2024-03-08T03:31:04;24.80;;;17.17;;
357;SDS011;167;47.558;7.602;2024-03-08T03:33:31;22.20;;;15.40;;
357;SDS011;167;47.558;7.602;2024-03-08T03:35:59;22.07;;;17.03;;
357;SDS011;167;47.558;7.602;2024-03-08T03:38:26;22.27;;;17.77;;
357;SDS011;167;47.558;7.602;2024-03-08T03:40:53;21.47;;;17.30;;
357;SDS011;167;47.558;7.602;2024-03-08T03:43:22;20.87;;;16.37;;
357;SDS011;167;47.558;7.602;2024-03-08T03:45:48;17.63;;;15.10;;
357;SDS011;167;47.558;7.602;2024-03-08T03:48:14;23.80;;;15.57;;
357;SDS011;167;47.558;7.602;2024-03-08T03:50:40;25.43;;;17.47;;
357;SDS011;167;47.558;7.602;2024-03-08T03:53:06;19.57;;;17.10;;
357;SDS011;167;47.558;7.602;2024-03-08T03:55:32;17.10;;;14.67;;
357;SDS011;167;47.558;7.602;2024-03-08T03:57:58;17.80;;;15.70;;
357;SDS011;167;47.558;7.602;2024-03-08T04:00:26;18.60;;;14.67;;
357;SDS011;167;47.558;7.602;2024-03-08T04:02:52;20.67;;;16.27;;
357;SDS011;167;47.558;7.602;2024-03-08T04:05:19;19.10;;;14.63;;
357;SDS011;167;47.558;7.602;2024-03-08T04:07:46;17.03;;;15.23;;
357;SDS011;167;47.558;7.602;2024-03-08T04:10:12;20.47;;;14.70;;
357;SDS011;167;47.558;7.602;2024-03-08T04:12:38;17.63;;;14.90;;
357;SDS011;167;47.558;7.602;2024-03-08T04:15:04;19.83;;;14.30;;
357;SDS011;167;47.558;7.602;2024-03-08T04:17:32;16.37;;;14.53;;
357;SDS011;167;47.558;7.602;2024-03-08T04:20:02;18.23;;;14.77;;
357;SDS011;167;47.558;7.602;2024-03-08T04:22:33;18.20;;;14.10;;
357;SDS011;167;47.558;7.602;2024-03-08T04:25:00;19.17;;;15.40;;
357;SDS011;167;47.558;7.602;2024-03-08T04:27:27;15.63;;;12.23;;
357;SDS011;167;47.558;7.602;2024-03-08T04:29:53;14.90;;;11.80;;
357;SDS011;167;47.558;7.602;2024-03-08T04:32:19;15.60;;;11.97;;
357;SDS011;167;47.558;7.602;2024-03-08T04:34:44;15.30;;;12.17;;
357;SDS011;167;47.558;7.602;2024-03-08T04:37:10;15.70;;;13.90;;
357;SDS011;167;47.558;7.602;2024-03-08T04:39:39;17.50;;;14.27;;
357;SDS011;167;47.558;7.602;2024-03-08T04:42:05;17.57;;;12.77;;
357;SDS011;167;47.558;7.602;2024-03-08T04:44:34;16.60;;;12.80;;
357;SDS011;167;47.558;7.602;2024-03-08T04:47:01;16.50;;;12.37;;
357;SDS011;167;47.558;7.602;2024-03-08T04:49:27;18.10;;;13.33;;
357;SDS011;167;47.558;7.602;2024-03-08T04:51:53;15.40;;;12.27;;
357;SDS011;167;47.558;7.602;2024-03-08T04:54:19;14.60;;;12.60;;
357;SDS011;167;47.558;7.602;2024-03-08T04:56:45;18.57;;;14.43;;
357;SDS011;167;47.558;7.602;2024-03-08T04:59:11;17.70;;;13.23;;
357;SDS011;167;47.558;7.602;2024-03-08T05:01:38;14.50;;;12.87;;
357;SDS011;167;47.558;7.602;2024-03-08T05:04:04;16.30;;;12.00;;
357;SDS011;167;47.558;7.602;2024-03-08T05:06:30;17.00;;;14.20;;
357;SDS011;167;47.558;7.602;2024-03-08T05:08:56;15.47;;;12.73;;
357;SDS011;167;47.558;7.602;2024-03-08T05:11:22;18.30;;;13.40;;
357;SDS011;167;47.558;7.602;2024-03-08T05:13:48;14.50;;;11.30;;
357;SDS011;167;47.558;7.602;2024-03-08T05:16:14;15.83;;;13.27;;
357;SDS011;167;47.558;7.602;2024-03-08T05:18:40;16.37;;;12.60;;
357;SDS011;167;47.558;7.602;2024-03-08T05:21:07;14.70;;;12.40;;
357;SDS011;167;47.558;7.602;2024-03-08T05:23:34;15.30;;;13.70;;
357;SDS011;167;47.558;7.602;2024-03-08T05:26:00;14.30;;;12.80;;
357;SDS011;167;47.558;7.602;2024-03-08T05:28:26;13.80;;;11.63;;
357;SDS011;167;47.558;7.602;2024-03-08T05:30:52;18.23;;;13.00;;
357;SDS011;167;47.558;7.602;2024-03-08T05:33:21;15.80;;;13.77;;
357;SDS011;167;47.558;7.602;2024-03-08T05:35:48;15.53;;;13.80;;
357;SDS011;167;47.558;7.602;2024-03-08T05:38:14;14.50;;;12.17;;
357;SDS011;167;47.558;7.602;2024-03-08T05:40:40;16.50;;;13.97;;
357;SDS011;167;47.558;7.602;2024-03-08T05:43:08;15.23;;;12.63;;
357;SDS011;167;47.558;7.602;2024-03-08T05:45:34;17.67;;;12.67;;
357;SDS011;167;47.558;7.602;2024-03-08T05:48:00;13.63;;;12.07;;
357;SDS011;167;47.558;7.602;2024-03-08T05:50:26;14.27;;;11.30;;
357;SDS011;167;47.558;7.602;2024-03-08T05:52:52;18.40;;;13.67;;
357;SDS011;167;47.558;7.602;2024-03-08T05:55:18;15.40;;;11.77;;
357;SDS011;167;47.558;7.602;2024-03-08T05:57:44;15.07;;;13.53;;
357;SDS011;167;47.558;7.602;2024-03-08T06:00:10;15.60;;;12.73;;
357;SDS011;167;47.558;7.602;2024-03-08T06:02:37;14.20;;;12.63;;
357;SDS011;167;47.558;7.602;2024-03-08T06:05:10;14.20;;;12.10;;
357;SDS011;167;47.558;7.602;2024-03-08T06:07:36;15.90;;;14.23;;
357;SDS011;167;47.558;7.602;2024-03-08T06:10:05;15.40;;;13.20;;
357;SDS011;167;47.558;7.602;2024-03-08T06:12:31;15.07;;;12.47;;
357;SDS011;167;47.558;7.602;2024-03-08T06:15:02;16.10;;;12.67;;
357;SDS011;167;47.558;7.602;2024-03-08T06:17:29;14.93;;;11.83;;
357;SDS011;167;47.558;7.602;2024-03-08T06:19:55;18.63;;;12.57;;
357;SDS011;167;47.558;7.602;2024-03-08T06:22:21;18.07;;;13.20;;
357;SDS011;167;47.558;7.602;2024-03-08T06:24:47;16.63;;;12.67;;
357;SDS011;167;47.558;7.602;2024-03-08T06:27:13;12.87;;;10.80;;
357;SDS011;167;47.558;7.602;2024-03-08T06:29:39;18.23;;;13.73;;
357;SDS011;167;47.558;7.602;2024-03-08T06:32:05;15.93;;;12.30;;
357;SDS011;167;47.558;7.602;2024-03-08T06:34:34;15.47;;;11.83;;
357;SDS011;167;47.558;7.602;2024-03-08T06:37:00;12.80;;;11.07;;
357;SDS011;167;47.558;7.602;2024-03-08T06:39:26;14.27;;;12.20;;
357;SDS011;167;47.558;7.602;2024-03-08T06:41:56;17.20;;;12.50;;
357;SDS011;167;47.558;7.602;2024-03-08T06:44:22;13.80;;;10.50;;
357;SDS011;167;47.558;7.602;2024-03-08T06:46:48;13.53;;;11.63;;
357;SDS011;167;47.558;7.602;2024-03-08T06:49:14;15.33;;;12.27;;
357;SDS011;167;47.558;7.602;2024-03-08T06:51:40;16.87;;;12.50;;
357;SDS011;167;47.558;7.602;2024-03-08T06:54:06;15.57;;;12.00;;
357;SDS011;167;47.558;7.602;2024-03-08T06:56:34;11.73;;;9.53;;
357;SDS011;167;47.558;7.602;2024-03-08T06:59:00;11.67;;;9.07;;
357;SDS011;167;47.558;7.602;2024-03-08T07:01:28;13.57;;;11.00;;
357;SDS011;167;47.558;7.602;2024-03-08T07:03:57;13.80;;;12.27;;
357;SDS011;167;47.558;7.602;2024-03-08T07:06:22;12.00;;;10.30;;
357;SDS011;167;47.558;7.602;2024-03-08T07:08:48;12.17;;;10.83;;
357;SDS011;167;47.558;7.602;2024-03-08T07:11:14;14.40;;;11.30;;
357;SDS011;167;47.558;7.602;2024-03-08T07:13:44;15.20;;;11.43;;
357;SDS011;167;47.558;7.602;2024-03-08T07:16:10;13.57;;;10.77;;
357;SDS011;167;47.558;7.602;2024-03-08T07:18:36;13.20;;;10.90;;
357;SDS011;167;47.558;7.602;2024-03-08T07:21:08;10.87;;;9.10;;
357;SDS011;167;47.558;7.602;2024-03-08T07:23:34;14.57;;;11.23;;
357;SDS011;167;47.558;7.602;2024-03-08T07:26:23;13.70;;;11.03;;
357;SDS011;167;47.558;7.602;2024-03-08T07:28:49;12.03;;;10.40;;
357;SDS011;167;47.558;7.602;2024-03-08T07:31:15;13.63;;;10.03;;
357;SDS011;167;47.558;7.602;2024-03-08T07:33:56;11.87;;;9.57;;
357;SDS011;167;47.558;7.602;2024-03-08T07:36:23;13.43;;;11.10;;
357;SDS011;167;47.558;7.602;2024-03-08T07:38:49;16.40;;;12.60;;
357;SDS011;167;47.558;7.602;2024-03-08T07:41:16;13.10;;;11.53;;
357;SDS011;167;47.558;7.602;2024-03-08T07:43:42;17.53;;;11.57;;
357;SDS011;167;47.558;7.602;2024-03-08T07:46:09;12.17;;;10.90;;
357;SDS011;167;47.558;7.602;2024-03-08T07:48:35;13.50;;;12.00;;
357;SDS011;167;47.558;7.602;2024-03-08T07:51:02;16.10;;;12.40;;
357;SDS011;167;47.558;7.602;2024-03-08T07:53:28;16.07;;;11.50;;
357;SDS011;167;47.558;7.602;2024-03-08T07:55:54;12.87;;;9.70;;
357;SDS011;167;47.558;7.602;2024-03-08T07:58:20;12.73;;;10.13;;
357;SDS011;167;47.558;7.602;2024-03-08T08:00:46;12.80;;;11.50;;
357;SDS011;167;47.558;7.602;2024-03-08T08:03:14;13.47;;;11.90;;
357;SDS011;167;47.558;7.602;2024-03-08T08:05:40;13.17;;;10.83;;
357;SDS011;167;47.558;7.602;2024-03-08T08:08:09;10.53;;;9.47;;
357;SDS011;167;47.558;7.602;2024-03-08T08:10:36;12.93;;;11.40;;
357;SDS011;167;47.558;7.602;2024-03-08T08:13:02;13.90;;;12.17;;
357;SDS011;167;47.558;7.602;2024-03-08T08:15:29;12.33;;;9.50;;
357;SDS011;167;47.558;7.602;2024-03-08T08:17:55;14.00;;;10.40;;
357;SDS011;167;47.558;7.602;2024-03-08T08:20:21;12.03;;;10.13;;
357;SDS011;167;47.558;7.602;2024-03-08T08:22:48;13.00;;;9.80;;
357;SDS011;167;47.558;7.602;2024-03-08T08:25:15;11.73;;;10.03;;
357;SDS011;167;47.558;7.602;2024-03-08T08:27:41;13.27;;;10.60;;
357;SDS011;167;47.558;7.602;2024-03-08T08:30:10;13.07;;;10.17;;
357;SDS011;167;47.558;7.602;2024-03-08T08:32:37;15.83;;;11.40;;
357;SDS011;167;47.558;7.602;2024-03-08T08:35:04;13.00;;;11.50;;
357;SDS011;167;47.558;7.602;2024-03-08T08:37:31;14.87;;;9.60;;
357;SDS011;167;47.558;7.602;2024-03-08T08:39:57;12.07;;;9.27;;
357;SDS011;167;47.558;7.602;2024-03-08T08:42:23;12.33;;;11.03;;
357;SDS011;167;47.558;7.602;2024-03-08T08:44:49;11.73;;;10.10;;
357;SDS011;167;47.558;7.602;2024-03-08T08:47:15;16.70;;;12.33;;
357;SDS011;167;47.558;7.602;2024-03-08T08:49:45;13.43;;;11.57;;
357;SDS011;167;47.558;7.602;2024-03-08T08:52:11;14.40;;;10.70;;
357;SDS011;167;47.558;7.602;2024-03-08T08:54:38;15.27;;;11.00;;
357;SDS011;167;47.558;7.602;2024-03-08T08:57:04;11.90;;;10.63;;
357;SDS011;167;47.558;7.602;2024-03-08T08:59:33;12.23;;;10.87;;
357;SDS011;167;47.558;7.602;2024-03-08T09:02:00;15.77;;;11.73;;
357;SDS011;167;47.558;7.602;2024-03-08T09:04:26;14.40;;;11.67;;
357;SDS011;167;47.558;7.602;2024-03-08T09:06:54;15.07;;;13.07;;
357;SDS011;167;47.558;7.602;2024-03-08T09:09:20;11.97;;;10.73;;
357;SDS011;167;47.558;7.602;2024-03-08T09:11:47;13.53;;;11.00;;
357;SDS011;167;47.558;7.602;2024-03-08T09:14:14;13.07;;;10.83;;
357;SDS011;167;47.558;7.602;2024-03-08T09:16:40;20.83;;;19.17;;
357;SDS011;167;47.558;7.602;2024-03-08T09:19:06;13.70;;;12.30;;
357;SDS011;167;47.558;7.602;2024-03-08T09:21:32;10.80;;;9.70;;
357;SDS011;167;47.558;7.602;2024-03-08T09:24:00;13.67;;;12.20;;
357;SDS011;167;47.558;7.602;2024-03-08T09:26:26;13.07;;;11.83;;
357;SDS011;167;47.558;7.602;2024-03-08T09:28:52;15.17;;;12.63;;
357;SDS011;167;47.558;7.602;2024-03-08T09:31:20;12.50;;;11.30;;
357;SDS011;167;47.558;7.602;2024-03-08T09:33:46;12.03;;;10.83;;
357;SDS011;167;47.558;7.602;2024-03-08T09:36:12;13.87;;;12.37;;
357;SDS011;167;47.558;7.602;2024-03-08T09:38:39;12.60;;;11.40;;
357;SDS011;167;47.558;7.602;2024-03-08T09:41:05;14.27;;;10.83;;
357;SDS011;167;47.558;7.602;2024-03-08T09:43:31;20.37;;;18.97;;
357;SDS011;167;47.558;7.602;2024-03-08T09:45:57;23.37;;;21.87;;
357;SDS011;167;47.558;7.602;2024-03-08T09:48:23;17.50;;;16.30;;
357;SDS011;167;47.558;7.602;2024-03-08T09:50:51;15.47;;;14.00;;
357;SDS011;167;47.558;7.602;2024-03-08T09:53:17;19.27;;;17.70;;
357;SDS011;167;47.558;7.602;2024-03-08T09:55:43;19.03;;;17.73;;
357;SDS011;167;47.558;7.602;2024-03-08T09:58:11;20.93;;;19.53;;
357;SDS011;167;47.558;7.602;2024-03-08T10:00:53;11.20;;;10.00;;
357;SDS011;167;47.558;7.602;2024-03-08T10:03:19;16.40;;;14.37;;
357;SDS011;167;47.558;7.602;2024-03-08T10:05:45;14.57;;;13.43;;
357;SDS011;167;47.558;7.602;2024-03-08T10:08:11;11.03;;;10.10;;
357;SDS011;167;47.558;7.602;2024-03-08T10:10:38;13.07;;;11.87;;
357;SDS011;167;47.558;7.602;2024-03-08T10:13:07;15.07;;;13.77;;
357;SDS011;167;47.558;7.602;2024-03-08T10:15:34;12.50;;;11.40;;
357;SDS011;167;47.558;7.602;2024-03-08T10:18:00;12.40;;;11.30;;
357;SDS011;167;47.558;7.602;2024-03-08T10:20:32;13.87;;;12.47;;
357;SDS011;167;47.558;7.602;2024-03-08T10:23:01;12.77;;;11.63;;
357;SDS011;167;47.558;7.602;2024-03-08T10:25:30;13.27;;;12.07;;
357;SDS011;167;47.558;7.602;2024-03-08T10:27:56;13.43;;;12.13;;
357;SDS011;167;47.558;7.602;2024-03-08T10:30:22;13.80;;;12.57;;
357;SDS011;167;47.558;7.602;2024-03-08T10:32:48;12.03;;;11.00;;
357;SDS011;167;47.558;7.602;2024-03-08T10:35:14;14.10;;;12.90;;
357;SDS011;167;47.558;7.602;2024-03-08T10:37:46;11.37;;;10.40;;
357;SDS011;167;47.558;7.602;2024-03-08T10:40:13;12.27;;;11.27;;
357;SDS011;167;47.558;7.602;2024-03-08T10:42:47;10.90;;;9.90;;
357;SDS011;167;47.558;7.602;2024-03-08T10:45:26;12.03;;;10.83;;
357;SDS011;167;47.558;7.602;2024-03-08T10:48:00;11.70;;;10.50;;
357;SDS011;167;47.558;7.602;2024-03-08T10:50:30;13.03;;;11.80;;
357;SDS011;167;47.558;7.602;2024-03-08T10:52:59;11.47;;;10.47;;
357;SDS011;167;47.558;7.602;2024-03-08T10:55:26;12.40;;;11.20;;
357;SDS011;167;47.558;7.602;2024-03-08T10:57:53;12.17;;;11.10;;
357;SDS011;167;47.558;7.602;2024-03-08T11:00:19;11.27;;;10.27;;
357;SDS011;167;47.558;7.602;2024-03-08T11:02:51;10.50;;;9.60;;
357;SDS011;167;47.558;7.602;2024-03-08T11:05:37;11.20;;;10.20;;
357;SDS011;167;47.558;7.602;2024-03-08T11:10:50;10.93;;;9.93;;
357;SDS011;167;47.558;7.602;2024-03-08T11:15:59;10.63;;;9.63;;
357;SDS011;167;47.558;7.602;2024-03-08T11:18:26;12.93;;;11.10;;
357;SDS011;167;47.558;7.602;2024-03-08T11:20:55;11.57;;;10.57;;
357;SDS011;167;47.558;7.602;2024-03-08T11:23:22;11.83;;;10.83;;
357;SDS011;167;47.558;7.602;2024-03-08T11:25:50;11.97;;;10.87;;
357;SDS011;167;47.558;7.602;2024-03-08T11:28:20;12.63;;;11.40;;
357;SDS011;167;47.558;7.602;2024-03-08T11:33:28;11.60;;;10.60;;
357;SDS011;167;47.558;7.602;2024-03-08T11:38:45;11.50;;;10.50;;
357;SDS011;167;47.558;7.602;2024-03-08T11:41:17;10.73;;;9.93;;
357;SDS011;167;47.558;7.602;2024-03-08T11:43:44;11.07;;;10.17;;
357;SDS011;167;47.558;7.602;2024-03-08T11:46:11;11.37;;;10.47;;
357;SDS011;167;47.558;7.602;2024-03-08T11:48:40;12.00;;;10.90;;
357;SDS011;167;47.558;7.602;2024-03-08T11:51:12;12.57;;;11.57;;
357;SDS011;167;47.558;7.602;2024-03-08T11:53:39;11.10;;;10.20;;
357;SDS011;167;47.558;7.602;2024-03-08T11:56:07;11.33;;;10.43;;
357;SDS011;167;47.558;7.602;2024-03-08T11:58:33;12.10;;;10.90;;
357;SDS011;167;47.558;7.602;2024-03-08T12:01:05;11.67;;;10.63;;
357;SDS011;167;47.558;7.602;2024-03-08T12:03:31;10.87;;;9.97;;
357;SDS011;167;47.558;7.602;2024-03-08T12:05:59;11.60;;;10.70;;
357;SDS011;167;47.558;7.602;2024-03-08T12:08:25;12.23;;;11.17;;
357;SDS011;167;47.558;7.602;2024-03-08T12:10:53;10.87;;;9.97;;
357;SDS011;167;47.558;7.602;2024-03-08T12:13:34;12.10;;;11.00;;
357;SDS011;167;47.558;7.602;2024-03-08T12:16:01;11.27;;;10.17;;
357;SDS011;167;47.558;7.602;2024-03-08T12:18:30;10.80;;;9.90;;
357;SDS011;167;47.558;7.602;2024-03-08T12:21:08;10.17;;;9.37;;
357;SDS011;167;47.558;7.602;2024-03-08T12:23:35;11.60;;;10.70;;
357;SDS011;167;47.558;7.602;2024-03-08T12:26:18;11.50;;;10.60;;
357;SDS011;167;47.558;7.602;2024-03-08T12:28:45;11.37;;;10.47;;
357;SDS011;167;47.558;7.602;2024-03-08T12:31:12;12.03;;;11.03;;
357;SDS011;167;47.558;7.602;2024-03-08T12:33:51;11.70;;;10.70;;
357;SDS011;167;47.558;7.602;2024-03-08T12:36:17;10.90;;;10.00;;
357;SDS011;167;47.558;7.602;2024-03-08T12:38:45;11.40;;;10.43;;
357;SDS011;167;47.558;7.602;2024-03-08T12:41:13;11.23;;;10.33;;
357;SDS011;167;47.558;7.602;2024-03-08T12:43:39;11.33;;;10.10;;
357;SDS011;167;47.558;7.602;2024-03-08T12:46:05;12.70;;;11.60;;
357;SDS011;167;47.558;7.602;2024-03-08T12:48:34;10.70;;;9.80;;
357;SDS011;167;47.558;7.602;2024-03-08T12:51:01;11.30;;;10.30;;
357;SDS011;167;47.558;7.602;2024-03-08T12:53:27;11.37;;;10.40;;
357;SDS011;167;47.558;7.602;2024-03-08T12:55:56;11.53;;;10.53;;
357;SDS011;167;47.558;7.602;2024-03-08T12:58:22;12.33;;;11.13;;
357;SDS011;167;47.558;7.602;2024-03-08T13:00:48;11.13;;;10.23;;
357;SDS011;167;47.558;7.602;2024-03-08T13:03:14;11.53;;;10.53;;
357;SDS011;167;47.558;7.602;2024-03-08T13:05:40;10.60;;;9.60;;
357;SDS011;167;47.558;7.602;2024-03-08T13:08:07;12.00;;;11.00;;
357;SDS011;167;47.558;7.602;2024-03-08T13:10:41;11.80;;;10.77;;
357;SDS011;167;47.558;7.602;2024-03-08T13:13:11;10.90;;;10.00;;
357;SDS011;167;47.558;7.602;2024-03-08T13:15:40;10.30;;;9.40;;
357;SDS011;167;47.558;7.602;2024-03-08T13:18:07;11.57;;;10.57;;
357;SDS011;167;47.558;7.602;2024-03-08T13:20:34;10.83;;;9.83;;
357;SDS011;167;47.558;7.602;2024-03-08T13:23:03;10.80;;;9.80;;
357;SDS011;167;47.558;7.602;2024-03-08T13:25:30;11.43;;;10.40;;
357;SDS011;167;47.558;7.602;2024-03-08T13:27:56;12.67;;;11.50;;
357;SDS011;167;47.558;7.602;2024-03-08T13:30:24;10.57;;;9.70;;
357;SDS011;167;47.558;7.602;2024-03-08T13:32:54;11.73;;;10.73;;
357;SDS011;167;47.558;7.602;2024-03-08T13:35:20;11.30;;;10.10;;
357;SDS011;167;47.558;7.602;2024-03-08T13:37:49;11.57;;;10.57;;
357;SDS011;167;47.558;7.602;2024-03-08T13:40:15;10.90;;;9.90;;
357;SDS011;167;47.558;7.602;2024-03-08T13:42:43;11.50;;;10.50;;
357;SDS011;167;47.558;7.602;2024-03-08T13:45:10;11.07;;;10.07;;
357;SDS011;167;47.558;7.602;2024-03-08T13:47:36;11.20;;;10.30;;
357;SDS011;167;47.558;7.602;2024-03-08T13:50:04;9.40;;;8.50;;
357;SDS011;167;47.558;7.602;2024-03-08T13:52:32;9.80;;;9.00;;
357;SDS011;167;47.558;7.602;2024-03-08T13:54:59;10.60;;;9.60;;
357;SDS011;167;47.558;7.602;2024-03-08T13:57:25;12.03;;;11.07;;
357;SDS011;167;47.558;7.602;2024-03-08T13:59:52;11.40;;;10.30;;
357;SDS011;167;47.558;7.602;2024-03-08T14:02:18;10.30;;;9.40;;
357;SDS011;167;47.558;7.602;2024-03-08T14:04:47;10.77;;;9.83;;
357;SDS011;167;47.558;7.602;2024-03-08T14:07:14;9.83;;;9.00;;
357;SDS011;167;47.558;7.602;2024-03-08T14:09:41;10.43;;;9.50;;
357;SDS011;167;47.558;7.602;2024-03-08T14:12:08;9.37;;;8.67;;
357;SDS011;167;47.558;7.602;2024-03-08T14:14:34;10.23;;;9.40;;
357;SDS011;167;47.558;7.602;2024-03-08T14:17:01;9.90;;;9.10;;
357;SDS011;167;47.558;7.602;2024-03-08T14:19:30;10.17;;;9.27;;
357;SDS011;167;47.558;7.602;2024-03-08T14:21:56;10.00;;;9.20;;
357;SDS011;167;47.558;7.602;2024-03-08T14:24:24;9.53;;;8.77;;
357;SDS011;167;47.558;7.602;2024-03-08T14:26:50;10.27;;;9.37;;
357;SDS011;167;47.558;7.602;2024-03-08T14:29:16;9.57;;;8.77;;
357;SDS011;167;47.558;7.602;2024-03-08T14:31:46;9.30;;;8.53;;
357;SDS011;167;47.558;7.602;2024-03-08T14:34:11;10.03;;;9.13;;
357;SDS011;167;47.558;7.602;2024-03-08T14:36:39;11.20;;;9.37;;
357;SDS011;167;47.558;7.602;2024-03-08T14:39:05;10.63;;;9.63;;
357;SDS011;167;47.558;7.602;2024-03-08T14:41:32;10.47;;;9.57;;
357;SDS011;167;47.558;7.602;2024-03-08T14:43:58;9.73;;;8.60;;
357;SDS011;167;47.558;7.602;2024-03-08T14:46:24;10.13;;;9.23;;
357;SDS011;167;47.558;7.602;2024-03-08T14:48:54;10.77;;;9.73;;
357;SDS011;167;47.558;7.602;2024-03-08T14:51:21;9.40;;;8.63;;
357;SDS011;167;47.558;7.602;2024-03-08T14:53:51;10.20;;;9.20;;
357;SDS011;167;47.558;7.602;2024-03-08T14:56:17;10.80;;;9.80;;
357;SDS011;167;47.558;7.602;2024-03-08T14:58:43;10.93;;;9.93;;
357;SDS011;167;47.558;7.602;2024-03-08T15:01:10;10.50;;;9.47;;
357;SDS011;167;47.558;7.602;2024-03-08T15:03:38;10.57;;;9.50;;
357;SDS011;167;47.558;7.602;2024-03-08T15:06:04;10.87;;;9.87;;
357;SDS011;167;47.558;7.602;2024-03-08T15:08:37;10.70;;;9.07;;
357;SDS011;167;47.558;7.602;2024-03-08T15:11:05;10.00;;;9.10;;
357;SDS011;167;47.558;7.602;2024-03-08T15:13:31;9.03;;;8.17;;
357;SDS011;167;47.558;7.602;2024-03-08T15:16:09;10.10;;;9.10;;
357;SDS011;167;47.558;7.602;2024-03-08T15:18:41;9.20;;;8.30;;
357;SDS011;167;47.558;7.602;2024-03-08T15:21:11;10.13;;;9.13;;
357;SDS011;167;47.558;7.602;2024-03-08T15:23:42;10.17;;;9.30;;
357;SDS011;167;47.558;7.602;2024-03-08T15:26:15;9.73;;;8.43;;
357;SDS011;167;47.558;7.602;2024-03-08T15:28:41;8.70;;;7.83;;